Time;durP1;ratioP1;P1;durP2;ratioP2;P2;SDS_P1;SDS_P2;PMS_P1;PMS_P2;Temp;Humidity;BMP_temperature;BMP_pressure;BME280_temperature;BME280_humidity;BME280_pressure;Samples;Min_cycle;Max_cycle;Signal;HPM_P1;HPM_P2
2021/12/19 00:09:53;;;;;;;5.10;4.15;;;;;;;;;;5061845;28;20077;-85
2021/12/19 00:12:18;;;;;;;4.43;2.95;;;;;;;;;;5060997;28;20103;-84
2021/12/19 00:14:44;;;;;;;5.80;2.95;;;;;;;;;;5071106;28;20028;-85
2021/12/19 00:17:09;;;;;;;5.18;3.40;;;;;;;;;;5068160;28;20495;-83
2021/12/19 00:19:35;;;;;;;4.32;3.05;;;;;;;;;;5070684;28;20058;-84
2021/12/19 00:26:03;;;;;;;4.63;3.33;;;;;;;;;;5057640;28;20400;-83
2021/12/19 00:29:06;;;;;;;4.40;3.63;;;;;;;;;;5050253;28;20093;-84
2021/12/19 00:31:59;;;;;;;6.47;4.85;;;;;;;;;;5048634;28;20036;-85
2021/12/19 00:35:02;;;;;;;5.38;4.65;;;;;;;;;;5067848;28;20505;-85
2021/12/19 00:37:34;;;;;;;3.88;2.55;;;;;;;;;;5050603;28;20036;-85
2021/12/19 00:46:24;;;;;;;8.10;4.80;;;;;;;;;;5006971;28;20046;-84
2021/12/19 00:48:54;;;;;;;4.07;3.22;;;;;;;;;;4979900;28;20049;-82
2021/12/19 00:51:23;;;;;;;7.28;4.25;;;;;;;;;;5009739;28;20079;-83
2021/12/19 00:53:54;;;;;;;5.65;3.95;;;;;;;;;;5063519;28;20020;-83
2021/12/19 00:56:19;;;;;;;4.72;3.85;;;;;;;;;;5064563;28;20036;-84
2021/12/19 00:58:45;;;;;;;4.93;3.70;;;;;;;;;;5057128;28;20036;-82
2021/12/19 01:01:12;;;;;;;7.65;4.57;;;;;;;;;;5070355;28;20029;-84
2021/12/19 01:03:43;;;;;;;5.38;3.90;;;;;;;;;;5053508;28;20075;-83
2021/12/19 01:06:09;;;;;;;6.20;3.47;;;;;;;;;;5065668;28;20028;-84
2021/12/19 01:08:34;;;;;;;6.13;4.40;;;;;;;;;;5065705;28;20484;-85
2021/12/19 01:11:00;;;;;;;6.60;4.85;;;;;;;;;;5072365;28;20491;-84
2021/12/19 01:13:25;;;;;;;8.77;5.68;;;;;;;;;;5071028;28;20078;-83
2021/12/19 01:15:53;;;;;;;4.45;3.25;;;;;;;;;;5053865;28;20381;-84
2021/12/19 01:18:18;;;;;;;5.40;4.35;;;;;;;;;;5057557;28;20576;-84
2021/12/19 01:20:44;;;;;;;7.05;4.22;;;;;;;;;;5072713;28;20127;-85
2021/12/19 01:23:11;;;;;;;4.80;3.53;;;;;;;;;;5064509;28;20064;-85
2021/12/19 01:25:37;;;;;;;5.88;3.55;;;;;;;;;;5052328;28;20423;-84
2021/12/19 01:28:03;;;;;;;5.53;3.35;;;;;;;;;;5055021;28;20021;-85
2021/12/19 01:30:29;;;;;;;6.75;4.38;;;;;;;;;;5073391;28;20023;-83
2021/12/19 01:32:55;;;;;;;5.35;4.28;;;;;;;;;;5073506;28;20052;-83
2021/12/19 01:35:24;;;;;;;6.40;5.13;;;;;;;;;;5070593;28;20483;-84
2021/12/19 01:37:50;;;;;;;8.65;5.38;;;;;;;;;;5061313;28;20494;-87
2021/12/19 01:40:18;;;;;;;7.88;4.57;;;;;;;;;;5053141;28;20029;-82
2021/12/19 01:42:46;;;;;;;5.93;4.03;;;;;;;;;;5051983;28;20029;-85
2021/12/19 01:45:14;;;;;;;7.22;4.13;;;;;;;;;;5056635;28;20836;-82
2021/12/19 01:47:41;;;;;;;8.05;4.68;;;;;;;;;;5073367;28;20036;-85
2021/12/19 01:50:09;;;;;;;6.55;4.55;;;;;;;;;;5072137;28;20393;-84
2021/12/19 01:52:34;;;;;;;7.90;4.93;;;;;;;;;;5071986;28;20461;-85
2021/12/19 01:55:00;;;;;;;8.00;5.28;;;;;;;;;;5072364;28;20035;-81
2021/12/19 01:57:26;;;;;;;7.32;5.18;;;;;;;;;;5052697;28;20056;-83
2021/12/19 01:59:53;;;;;;;6.15;4.00;;;;;;;;;;5061462;28;20033;-87
2021/12/19 02:02:19;;;;;;;8.57;6.53;;;;;;;;;;5059595;28;20039;-82
2021/12/19 02:04:44;;;;;;;6.20;4.85;;;;;;;;;;5069923;28;20477;-83
2021/12/19 02:07:11;;;;;;;7.93;4.65;;;;;;;;;;5051698;28;20033;-83
2021/12/19 02:09:38;;;;;;;7.03;4.35;;;;;;;;;;5052290;28;20025;-84
2021/12/19 02:12:04;;;;;;;6.85;4.05;;;;;;;;;;5052432;28;20052;-83
2021/12/19 02:14:30;;;;;;;8.85;4.82;;;;;;;;;;5051667;28;20070;-83
2021/12/19 02:16:55;;;;;;;8.07;6.15;;;;;;;;;;5059768;28;20550;-84
2021/12/19 02:19:24;;;;;;;7.10;4.50;;;;;;;;;;5065039;28;20060;-85
2021/12/19 02:21:49;;;;;;;7.85;4.78;;;;;;;;;;5056163;28;20090;-84
2021/12/19 02:24:15;;;;;;;6.57;3.92;;;;;;;;;;5058786;28;20029;-82
2021/12/19 02:26:41;;;;;;;11.38;5.07;;;;;;;;;;5058521;28;20040;-83
2021/12/19 02:29:07;;;;;;;6.65;4.97;;;;;;;;;;5051328;28;20036;-80
2021/12/19 02:31:33;;;;;;;7.13;4.72;;;;;;;;;;5051862;28;20033;-81
2021/12/19 02:34:05;;;;;;;5.13;4.30;;;;;;;;;;5065643;28;20107;-81
2021/12/19 02:50:06;;;;;;;6.63;4.47;;;;;;;;;;5066161;28;20435;-83
2021/12/19 02:52:32;;;;;;;8.80;5.28;;;;;;;;;;5054121;28;20388;-84
2021/12/19 02:54:57;;;;;;;8.90;4.95;;;;;;;;;;5070626;28;20075;-82
2021/12/19 02:57:23;;;;;;;5.38;3.58;;;;;;;;;;5053146;28;20048;-82
2021/12/19 02:59:49;;;;;;;5.13;3.55;;;;;;;;;;5056121;28;20027;-83
2021/12/19 03:02:16;;;;;;;7.55;4.55;;;;;;;;;;5066145;28;20075;-84
2021/12/19 03:04:59;;;;;;;8.15;3.65;;;;;;;;;;5068570;28;20032;-83
2021/12/19 03:07:25;;;;;;;5.18;3.40;;;;;;;;;;5055306;28;20017;-84
2021/12/19 03:20:14;;;;;;;5.28;4.18;;;;;;;;;;5059513;28;20040;-85
2021/12/19 03:22:40;;;;;;;7.85;3.78;;;;;;;;;;5059545;28;20028;-84
2021/12/19 03:25:05;;;;;;;3.95;3.45;;;;;;;;;;5052263;28;20033;-87
2021/12/19 03:27:31;;;;;;;5.35;3.50;;;;;;;;;;5056736;28;20043;-82
2021/12/19 03:29:56;;;;;;;5.05;3.47;;;;;;;;;;5069048;28;20028;-83
2021/12/19 03:32:24;;;;;;;4.32;2.42;;;;;;;;;;5055299;28;20060;-82
2021/12/19 03:34:50;;;;;;;7.95;3.90;;;;;;;;;;5066080;28;20033;-81
2021/12/19 03:37:15;;;;;;;7.55;3.58;;;;;;;;;;5071256;28;20039;-84
2021/12/19 03:42:26;;;;;;;6.70;4.38;;;;;;;;;;5051022;28;20511;-81
2021/12/19 03:44:53;;;;;;;3.17;2.33;;;;;;;;;;5068844;28;20028;-83
2021/12/19 03:47:19;;;;;;;8.45;4.00;;;;;;;;;;5063850;28;20035;-83
2021/12/19 03:49:46;;;;;;;3.40;2.30;;;;;;;;;;5069283;28;20033;-83
2021/12/19 03:52:11;;;;;;;11.45;3.97;;;;;;;;;;5050592;28;20104;-82
2021/12/19 03:54:37;;;;;;;4.35;2.97;;;;;;;;;;5071160;28;20157;-81
2021/12/19 03:57:02;;;;;;;4.63;3.03;;;;;;;;;;5064751;28;20025;-82
2021/12/19 03:59:30;;;;;;;5.95;3.78;;;;;;;;;;5057540;28;20115;-85
2021/12/19 04:01:56;;;;;;;6.25;4.03;;;;;;;;;;5069811;28;20107;-85
2021/12/19 04:04:21;;;;;;;3.65;2.20;;;;;;;;;;5052011;28;20163;-85
2021/12/19 04:06:47;;;;;;;4.97;3.65;;;;;;;;;;5056839;28;20032;-83
2021/12/19 04:09:12;;;;;;;4.95;3.25;;;;;;;;;;5064354;28;20040;-83
2021/12/19 04:11:38;;;;;;;3.90;2.70;;;;;;;;;;5061261;28;20115;-84
2021/12/19 04:14:04;;;;;;;6.18;3.78;;;;;;;;;;5054172;28;20350;-84
2021/12/19 04:16:29;;;;;;;6.78;3.78;;;;;;;;;;5057513;28;20028;-82
2021/12/19 04:18:55;;;;;;;8.52;4.22;;;;;;;;;;5061926;28;20375;-80
2021/12/19 04:21:20;;;;;;;4.70;3.13;;;;;;;;;;5057412;28;20052;-85
2021/12/19 04:23:46;;;;;;;5.85;3.42;;;;;;;;;;5067791;28;20059;-81
2021/12/19 04:26:11;;;;;;;5.68;2.83;;;;;;;;;;5059725;28;20036;-81
2021/12/19 04:28:37;;;;;;;11.30;3.63;;;;;;;;;;5070222;28;20119;-82
2021/12/19 04:31:03;;;;;;;10.73;5.57;;;;;;;;;;5062527;28;20024;-81
2021/12/19 04:33:34;;;;;;;7.20;4.13;;;;;;;;;;5054575;28;20021;-83
2021/12/19 04:36:03;;;;;;;5.13;3.08;;;;;;;;;;5053551;28;20020;-83
2021/12/19 04:57:22;;;;;;;10.68;5.15;;;;;;;;;;5059087;28;20118;-84
2021/12/19 05:15:53;;;;;;;14.52;4.20;;;;;;;;;;5073548;28;20382;-83
2021/12/19 05:18:23;;;;;;;9.00;5.65;;;;;;;;;;5058556;28;20020;-82
2021/12/19 05:20:58;;;;;;;10.55;5.45;;;;;;;;;;5073473;28;20036;-83
2021/12/19 05:23:39;;;;;;;10.23;5.75;;;;;;;;;;5060425;28;20037;-82
2021/12/19 05:26:06;;;;;;;7.60;3.75;;;;;;;;;;5052579;28;20031;-79
2021/12/19 05:28:32;;;;;;;8.80;5.07;;;;;;;;;;5052595;28;20032;-83
2021/12/19 05:30:58;;;;;;;12.18;4.95;;;;;;;;;;5054763;28;20028;-80
2021/12/19 05:33:23;;;;;;;10.23;9.10;;;;;;;;;;5053019;28;20021;-79
2021/12/19 05:36:11;;;;;;;7.25;4.43;;;;;;;;;;5054578;28;20025;-82
2021/12/19 05:46:48;;;;;;;6.55;4.38;;;;;;;;;;5058708;28;20174;-80
2021/12/19 05:49:13;;;;;;;9.63;5.47;;;;;;;;;;5071093;28;20505;-82
2021/12/19 05:51:39;;;;;;;11.55;7.13;;;;;;;;;;5067521;28;20442;-82
2021/12/19 05:54:06;;;;;;;9.95;5.57;;;;;;;;;;5053026;28;20021;-80
2021/12/19 05:56:32;;;;;;;8.68;5.60;;;;;;;;;;5052240;28;20384;-82
2021/12/19 05:58:58;;;;;;;8.30;4.80;;;;;;;;;;5052684;28;20025;-81
2021/12/19 06:01:23;;;;;;;14.52;7.05;;;;;;;;;;5060371;28;20392;-83
2021/12/19 06:03:49;;;;;;;9.32;6.00;;;;;;;;;;5063615;28;20024;-83
2021/12/19 06:06:14;;;;;;;14.27;5.40;;;;;;;;;;5071768;28;20034;-80
2021/12/19 06:08:39;;;;;;;15.88;6.57;;;;;;;;;;5061027;28;20017;-82
2021/12/19 06:11:05;;;;;;;8.77;5.38;;;;;;;;;;5059179;28;20484;-83
2021/12/19 06:13:30;;;;;;;9.60;5.43;;;;;;;;;;5060687;28;20094;-83
2021/12/19 06:15:57;;;;;;;7.25;4.40;;;;;;;;;;5052352;28;20032;-82
2021/12/19 06:18:23;;;;;;;10.93;5.95;;;;;;;;;;5054277;28;20384;-82
2021/12/19 06:20:49;;;;;;;14.68;9.77;;;;;;;;;;5065282;28;20044;-81
2021/12/19 06:23:15;;;;;;;16.48;8.93;;;;;;;;;;5066349;28;20112;-83
2021/12/19 06:25:47;;;;;;;9.93;5.72;;;;;;;;;;5056401;28;20052;-83
2021/12/19 06:28:13;;;;;;;12.70;6.05;;;;;;;;;;5069253;28;20030;-83
2021/12/19 06:30:39;;;;;;;9.85;6.00;;;;;;;;;;5051862;28;20104;-81
2021/12/19 06:33:04;;;;;;;14.10;7.22;;;;;;;;;;5056379;28;20516;-85
2021/12/19 06:35:31;;;;;;;11.88;6.10;;;;;;;;;;5056721;28;20037;-87
2021/12/19 06:37:57;;;;;;;6.60;4.43;;;;;;;;;;5050314;28;20020;-82
2021/12/19 06:40:23;;;;;;;8.38;6.13;;;;;;;;;;5060876;28;20028;-82
2021/12/19 06:42:49;;;;;;;9.48;5.60;;;;;;;;;;5051958;28;20037;-86
2021/12/19 06:45:15;;;;;;;10.25;6.03;;;;;;;;;;5052608;28;20511;-87
2021/12/19 06:47:41;;;;;;;10.50;5.68;;;;;;;;;;5065202;28;20037;-87
2021/12/19 06:50:15;;;;;;;9.50;5.55;;;;;;;;;;5061149;28;20033;-85
2021/12/19 06:52:41;;;;;;;15.45;7.20;;;;;;;;;;5051090;28;20031;-82
2021/12/19 06:55:12;;;;;;;14.23;7.13;;;;;;;;;;5068941;28;20028;-84
2021/12/19 06:57:38;;;;;;;15.77;9.38;;;;;;;;;;5064013;28;20060;-84
2021/12/19 07:00:20;;;;;;;13.00;6.70;;;;;;;;;;5071099;28;20090;-87
2021/12/19 07:02:45;;;;;;;7.70;4.90;;;;;;;;;;5056816;28;20489;-85
2021/12/19 07:05:11;;;;;;;7.55;4.90;;;;;;;;;;5058512;28;20077;-84
2021/12/19 07:07:37;;;;;;;7.72;4.85;;;;;;;;;;5066292;28;20464;-83
2021/12/19 07:10:04;;;;;;;8.15;5.72;;;;;;;;;;5058581;28;20066;-84
2021/12/19 07:12:30;;;;;;;6.82;4.35;;;;;;;;;;5061200;28;20029;-84
2021/12/19 07:14:56;;;;;;;10.40;6.00;;;;;;;;;;5054876;28;20021;-87
2021/12/19 07:17:22;;;;;;;10.10;5.60;;;;;;;;;;5068101;28;20041;-87
2021/12/19 07:19:48;;;;;;;9.38;6.32;;;;;;;;;;5062523;28;20458;-89
2021/12/19 07:22:13;;;;;;;7.22;4.80;;;;;;;;;;5067017;28;20059;-84
2021/12/19 07:24:39;;;;;;;8.27;5.30;;;;;;;;;;5059737;28;20021;-88
2021/12/19 07:27:06;;;;;;;9.70;6.50;;;;;;;;;;5066144;28;20404;-84
2021/12/19 07:29:32;;;;;;;11.05;7.00;;;;;;;;;;5052062;28;20036;-85
2021/12/19 07:31:58;;;;;;;9.80;6.00;;;;;;;;;;5055687;28;20033;-84
2021/12/19 07:34:31;;;;;;;9.65;5.97;;;;;;;;;;5057678;28;20039;-86
2021/12/19 07:36:57;;;;;;;8.38;4.68;;;;;;;;;;5071004;28;20464;-85
2021/12/19 07:39:38;;;;;;;9.75;5.65;;;;;;;;;;5066612;28;20119;-85
2021/12/19 07:42:10;;;;;;;10.80;7.45;;;;;;;;;;5069183;28;20553;-81
2021/12/19 07:44:37;;;;;;;11.90;7.65;;;;;;;;;;5069561;28;20036;-83
2021/12/19 07:47:03;;;;;;;8.50;5.28;;;;;;;;;;5058966;28;20025;-82
2021/12/19 07:49:29;;;;;;;7.95;5.20;;;;;;;;;;5049515;28;20028;-83
2021/12/19 07:51:55;;;;;;;7.15;4.85;;;;;;;;;;5054370;28;20030;-84
2021/12/19 07:54:20;;;;;;;8.25;4.90;;;;;;;;;;5053149;28;20257;-81
2021/12/19 07:56:46;;;;;;;7.85;4.93;;;;;;;;;;5058474;28;20453;-81
2021/12/19 07:59:12;;;;;;;8.63;5.47;;;;;;;;;;5055245;28;20467;-80
2021/12/19 08:01:38;;;;;;;12.23;5.57;;;;;;;;;;5058304;28;20037;-83
2021/12/19 08:04:03;;;;;;;8.82;6.38;;;;;;;;;;5066326;28;20051;-84
2021/12/19 08:06:29;;;;;;;8.60;4.93;;;;;;;;;;5054649;28;20060;-80
2021/12/19 08:08:57;;;;;;;7.03;5.05;;;;;;;;;;5068933;28;20497;-83
2021/12/19 08:11:40;;;;;;;10.68;6.45;;;;;;;;;;5065915;28;20047;-79
2021/12/19 08:14:11;;;;;;;7.55;5.05;;;;;;;;;;5064462;28;20025;-83
2021/12/19 08:16:37;;;;;;;15.35;6.68;;;;;;;;;;5057588;28;20028;-81
2021/12/19 08:19:03;;;;;;;9.35;6.45;;;;;;;;;;5053935;28;20024;-81
2021/12/19 08:21:29;;;;;;;11.90;6.68;;;;;;;;;;5066929;28;20041;-80
2021/12/19 08:23:58;;;;;;;9.23;6.30;;;;;;;;;;5061488;28;20029;-82
2021/12/19 08:26:25;;;;;;;7.88;4.75;;;;;;;;;;5061146;28;20438;-83
2021/12/19 08:28:50;;;;;;;12.05;6.70;;;;;;;;;;5074716;28;20024;-82
2021/12/19 08:31:19;;;;;;;10.43;6.22;;;;;;;;;;5060108;28;20028;-82
2021/12/19 08:33:44;;;;;;;9.55;6.93;;;;;;;;;;5058319;28;20032;-81
2021/12/19 08:36:10;;;;;;;12.18;6.28;;;;;;;;;;5055909;28;20029;-83
2021/12/19 08:38:36;;;;;;;8.65;5.75;;;;;;;;;;5059834;28;20078;-83
2021/12/19 08:41:02;;;;;;;7.20;5.70;;;;;;;;;;5070250;28;20426;-81
2021/12/19 08:43:28;;;;;;;13.60;6.68;;;;;;;;;;5068178;28;20093;-81
2021/12/19 08:45:53;;;;;;;9.40;4.95;;;;;;;;;;5063363;28;20028;-80
2021/12/19 08:48:19;;;;;;;11.30;6.03;;;;;;;;;;5077758;28;20071;-84
2021/12/19 08:50:45;;;;;;;10.73;7.35;;;;;;;;;;5056912;28;20087;-84
2021/12/19 08:53:11;;;;;;;10.05;7.60;;;;;;;;;;5057109;28;20070;-81
2021/12/19 08:55:37;;;;;;;9.77;6.15;;;;;;;;;;5055511;28;20032;-81
2021/12/19 08:58:03;;;;;;;8.93;6.55;;;;;;;;;;5061605;28;20036;-83
2021/12/19 09:00:30;;;;;;;11.55;6.40;;;;;;;;;;5062151;28;20166;-81
2021/12/19 09:02:56;;;;;;;8.20;5.68;;;;;;;;;;5058891;28;20031;-81
2021/12/19 09:05:24;;;;;;;10.02;5.35;;;;;;;;;;5071438;28;20021;-83
2021/12/19 09:07:51;;;;;;;9.57;6.28;;;;;;;;;;5062400;28;20463;-81
2021/12/19 09:10:20;;;;;;;8.30;5.47;;;;;;;;;;5058013;28;20052;-81
2021/12/19 09:13:09;;;;;;;7.90;6.25;;;;;;;;;;5057047;28;20468;-81
2021/12/19 09:22:04;;;;;;;8.15;5.18;;;;;;;;;;5066483;28;20051;-80
2021/12/19 09:24:30;;;;;;;8.48;5.82;;;;;;;;;;5055785;28;20445;-79
2021/12/19 09:26:55;;;;;;;7.55;4.55;;;;;;;;;;5059405;28;20035;-81
2021/12/19 09:29:20;;;;;;;10.10;6.22;;;;;;;;;;5055851;28;20036;-81
2021/12/19 09:31:46;;;;;;;10.85;6.85;;;;;;;;;;5061643;28;20036;-81
2021/12/19 09:34:12;;;;;;;10.05;6.20;;;;;;;;;;5062720;28;20114;-84
2021/12/19 09:36:37;;;;;;;8.50;5.35;;;;;;;;;;5065738;28;20028;-85
2021/12/19 09:39:04;;;;;;;11.85;5.55;;;;;;;;;;5066861;28;20411;-89
2021/12/19 09:41:33;;;;;;;11.68;6.13;;;;;;;;;;5059193;28;20078;-86
2021/12/19 09:44:02;;;;;;;11.45;7.82;;;;;;;;;;5064356;28;20043;-87
2021/12/19 09:46:31;;;;;;;9.10;4.85;;;;;;;;;;5071572;28;20086;-83
2021/12/19 09:48:57;;;;;;;6.90;5.05;;;;;;;;;;5057855;28;20028;-83
2021/12/19 09:51:23;;;;;;;10.88;6.72;;;;;;;;;;5061342;28;20054;-85
2021/12/19 09:53:48;;;;;;;7.70;4.75;;;;;;;;;;5066738;28;20024;-85
2021/12/19 09:56:14;;;;;;;10.25;5.30;;;;;;;;;;5066400;28;20033;-82
2021/12/19 09:58:40;;;;;;;9.82;6.05;;;;;;;;;;5068931;28;20031;-85
2021/12/19 10:01:09;;;;;;;7.63;4.68;;;;;;;;;;5071212;28;20025;-82
2021/12/19 10:03:36;;;;;;;6.90;4.57;;;;;;;;;;5060448;28;20027;-82
2021/12/19 10:06:21;;;;;;;9.20;5.75;;;;;;;;;;5057796;28;20469;-84
2021/12/19 10:08:53;;;;;;;8.50;4.70;;;;;;;;;;5061630;28;20388;-85
2021/12/19 10:11:32;;;;;;;7.72;5.70;;;;;;;;;;5058123;28;20469;-81
2021/12/19 10:13:59;;;;;;;5.68;3.83;;;;;;;;;;5064097;28;20126;-84
2021/12/19 10:16:29;;;;;;;7.80;5.28;;;;;;;;;;5053611;28;20029;-81
2021/12/19 10:18:57;;;;;;;9.18;5.55;;;;;;;;;;5059220;28;20107;-82
2021/12/19 10:21:23;;;;;;;8.52;5.25;;;;;;;;;;5068488;28;20040;-87
2021/12/19 10:23:49;;;;;;;7.55;5.03;;;;;;;;;;5073159;28;20025;-86
2021/12/19 10:26:15;;;;;;;11.57;6.95;;;;;;;;;;5059014;28;20094;-82
2021/12/19 10:28:54;;;;;;;8.23;6.57;;;;;;;;;;5058442;28;20507;-82
2021/12/19 10:31:20;;;;;;;7.43;5.03;;;;;;;;;;5059930;28;20493;-81
2021/12/19 10:33:48;;;;;;;8.60;6.20;;;;;;;;;;5058204;28;20029;-85
2021/12/19 10:36:16;;;;;;;10.13;5.43;;;;;;;;;;5065582;28;20028;-84
2021/12/19 10:38:45;;;;;;;5.82;4.32;;;;;;;;;;5060151;28;20603;-84
2021/12/19 10:41:32;;;;;;;9.07;5.68;;;;;;;;;;5064893;28;20031;-83
2021/12/19 10:44:03;;;;;;;8.68;6.15;;;;;;;;;;5063503;28;20035;-83
2021/12/19 10:46:34;;;;;;;10.05;6.90;;;;;;;;;;5062071;28;20056;-85
2021/12/19 10:49:02;;;;;;;8.25;5.20;;;;;;;;;;5068909;28;20060;-86
2021/12/19 10:51:30;;;;;;;6.88;4.95;;;;;;;;;;5064337;28;20134;-83
2021/12/19 10:54:03;;;;;;;8.32;5.13;;;;;;;;;;5083387;28;20020;-86
2021/12/19 10:56:37;;;;;;;9.50;5.55;;;;;;;;;;5067300;28;20048;-85
2021/12/19 10:59:05;;;;;;;8.63;5.80;;;;;;;;;;5064067;28;20024;-83
2021/12/19 11:01:41;;;;;;;8.80;5.30;;;;;;;;;;5058265;28;20466;-86
2021/12/19 11:04:18;;;;;;;9.95;6.00;;;;;;;;;;5063203;28;20025;-84
2021/12/19 11:06:49;;;;;;;9.50;6.63;;;;;;;;;;5068026;28;20067;-84
2021/12/19 11:09:23;;;;;;;10.05;5.78;;;;;;;;;;5061024;28;20024;-85
2021/12/19 11:11:50;;;;;;;9.25;5.85;;;;;;;;;;5056365;28;20031;-86
2021/12/19 11:14:26;;;;;;;12.27;7.70;;;;;;;;;;5060912;28;20020;-87
2021/12/19 11:16:55;;;;;;;9.82;6.88;;;;;;;;;;5060225;28;20431;-84
2021/12/19 11:19:21;;;;;;;10.60;6.50;;;;;;;;;;5064554;28;20032;-84
2021/12/19 11:21:47;;;;;;;8.85;5.57;;;;;;;;;;5058185;28;20063;-85
2021/12/19 11:24:15;;;;;;;13.13;7.95;;;;;;;;;;5056664;28;20123;-84
2021/12/19 11:26:43;;;;;;;10.60;5.70;;;;;;;;;;5063358;28;20029;-86
2021/12/19 11:29:12;;;;;;;9.75;6.40;;;;;;;;;;5062144;28;20016;-85
2021/12/19 11:31:39;;;;;;;10.57;6.40;;;;;;;;;;5070435;28;20384;-85
2021/12/19 11:34:20;;;;;;;8.40;5.07;;;;;;;;;;5067125;28;20024;-83
2021/12/19 11:36:51;;;;;;;12.90;7.28;;;;;;;;;;5060047;28;20028;-85
2021/12/19 11:39:17;;;;;;;10.70;7.45;;;;;;;;;;5068276;28;20024;-82
2021/12/19 11:42:05;;;;;;;13.50;6.22;;;;;;;;;;5050326;28;20036;-82
2021/12/19 11:44:38;;;;;;;12.60;8.77;;;;;;;;;;5056803;28;20029;-82
2021/12/19 11:47:09;;;;;;;11.10;6.97;;;;;;;;;;5071929;28;20024;-83
2021/12/19 11:49:35;;;;;;;10.75;6.90;;;;;;;;;;5060921;28;20126;-83
2021/12/19 11:52:24;;;;;;;11.50;7.53;;;;;;;;;;5056832;28;20055;-81
2021/12/19 11:55:14;;;;;;;10.48;7.25;;;;;;;;;;5066833;28;20020;-82
2021/12/19 11:58:01;;;;;;;11.55;7.53;;;;;;;;;;5059727;28;20070;-79
2021/12/19 12:00:29;;;;;;;11.70;5.97;;;;;;;;;;5056892;28;20033;-83
2021/12/19 12:03:13;;;;;;;12.77;8.18;;;;;;;;;;5063079;28;20025;-82
2021/12/19 12:05:46;;;;;;;10.75;6.43;;;;;;;;;;5080204;28;20029;-79
2021/12/19 12:08:16;;;;;;;12.65;8.20;;;;;;;;;;5062067;28;20055;-82
2021/12/19 12:11:02;;;;;;;11.50;7.22;;;;;;;;;;5058783;28;20865;-79
2021/12/19 12:13:34;;;;;;;14.27;7.70;;;;;;;;;;5057963;28;20033;-82
2021/12/19 12:18:56;;;;;;;12.65;8.10;;;;;;;;;;5066043;28;20043;-82
2021/12/19 12:24:19;;;;;;;15.18;8.23;;;;;;;;;;5049775;28;20056;-84
2021/12/19 12:26:57;;;;;;;10.52;6.65;;;;;;;;;;5063755;28;20021;-80
2021/12/19 12:29:24;;;;;;;8.07;5.65;;;;;;;;;;5060186;28;20028;-88
2021/12/19 12:31:51;;;;;;;12.27;7.68;;;;;;;;;;5063024;28;20028;-85
2021/12/19 12:34:18;;;;;;;11.02;6.75;;;;;;;;;;5067517;28;20025;-84
2021/12/19 12:36:44;;;;;;;10.52;6.65;;;;;;;;;;5059602;28;20388;-83
2021/12/19 12:39:21;;;;;;;10.13;5.82;;;;;;;;;;5059123;28;20027;-82
2021/12/19 12:44:18;;;;;;;7.43;5.38;;;;;;;;;;5050638;28;20037;-82
2021/12/19 12:46:45;;;;;;;10.35;6.03;;;;;;;;;;5063214;28;20468;-80
2021/12/19 12:49:25;;;;;;;13.05;9.52;;;;;;;;;;5068902;28;20077;-83
2021/12/19 12:51:59;;;;;;;8.30;5.32;;;;;;;;;;5060609;28;20050;-82
2021/12/19 12:54:32;;;;;;;15.43;9.65;;;;;;;;;;5056854;28;20398;-82
2021/12/19 12:57:00;;;;;;;13.30;8.82;;;;;;;;;;5053116;28;20377;-82
2021/12/19 12:59:31;;;;;;;16.45;9.10;;;;;;;;;;5052422;28;20029;-85
2021/12/19 13:02:10;;;;;;;26.88;15.90;;;;;;;;;;5052966;28;20444;-85
2021/12/19 13:04:37;;;;;;;10.52;5.75;;;;;;;;;;5061061;28;20033;-82
2021/12/19 13:07:04;;;;;;;12.43;8.52;;;;;;;;;;5065285;28;20031;-84
2021/12/19 13:09:40;;;;;;;9.27;5.63;;;;;;;;;;5072974;28;20052;-81
2021/12/19 13:12:08;;;;;;;11.02;6.85;;;;;;;;;;5072639;28;20025;-79
2021/12/19 13:14:43;;;;;;;17.42;9.82;;;;;;;;;;5072371;28;20488;-79
2021/12/19 13:17:15;;;;;;;10.35;6.95;;;;;;;;;;5069780;28;20086;-78
2021/12/19 13:20:03;;;;;;;7.18;4.45;;;;;;;;;;5065627;28;20025;-79
2021/12/19 13:22:32;;;;;;;17.88;10.77;;;;;;;;;;5069063;28;20044;-78
2021/12/19 13:25:33;;;;;;;13.80;8.27;;;;;;;;;;5062834;28;20102;-81
2021/12/19 13:28:01;;;;;;;15.95;8.70;;;;;;;;;;5052686;28;20064;-79
2021/12/19 13:30:29;;;;;;;12.65;6.63;;;;;;;;;;5052348;28;20035;-78
2021/12/19 13:32:56;;;;;;;14.02;8.45;;;;;;;;;;5059732;28;20371;-80
2021/12/19 13:35:35;;;;;;;10.45;7.47;;;;;;;;;;5061242;28;20028;-81
2021/12/19 13:38:10;;;;;;;11.70;6.95;;;;;;;;;;5060221;28;20384;-81
2021/12/19 13:40:40;;;;;;;8.55;5.57;;;;;;;;;;5052531;28;20024;-81
2021/12/19 13:43:09;;;;;;;13.00;7.60;;;;;;;;;;5056644;28;20024;-79
2021/12/19 13:45:52;;;;;;;11.27;7.05;;;;;;;;;;5054660;28;20500;-81
2021/12/19 13:48:31;;;;;;;11.23;6.72;;;;;;;;;;5073860;28;20533;-81
2021/12/19 13:51:03;;;;;;;9.53;6.83;;;;;;;;;;5067461;28;20028;-79
2021/12/19 13:53:30;;;;;;;18.60;10.10;;;;;;;;;;5072937;28;20543;-81
2021/12/19 13:55:57;;;;;;;14.35;8.95;;;;;;;;;;5072649;28;20529;-81
2021/12/19 13:58:29;;;;;;;13.25;7.50;;;;;;;;;;5072417;28;20116;-80
2021/12/19 14:00:56;;;;;;;24.40;12.63;;;;;;;;;;5070844;28;20027;-78
2021/12/19 14:03:48;;;;;;;14.50;9.45;;;;;;;;;;5051178;28;20041;-81
2021/12/19 14:06:22;;;;;;;16.38;9.23;;;;;;;;;;5068242;28;20043;-80
2021/12/19 14:08:56;;;;;;;17.48;9.50;;;;;;;;;;5071064;28;20043;-80
2021/12/19 14:11:23;;;;;;;20.70;10.43;;;;;;;;;;5071113;28;20024;-82
2021/12/19 14:14:25;;;;;;;12.57;7.65;;;;;;;;;;5070924;28;20031;-82
2021/12/19 14:17:03;;;;;;;13.32;6.95;;;;;;;;;;5069422;28;20029;-81
2021/12/19 14:19:40;;;;;;;23.10;11.80;;;;;;;;;;5060513;28;20033;-83
2021/12/19 14:22:12;;;;;;;14.02;8.52;;;;;;;;;;5058731;28;20058;-80
2021/12/19 14:24:52;;;;;;;14.88;9.65;;;;;;;;;;5058503;28;20468;-78
2021/12/19 14:27:20;;;;;;;;;;;;;;;;;;5057205;28;20111;-81
2021/12/19 14:30:06;;;;;;;12.15;8.07;;;;;;;;;;5057315;28;20365;-81
2021/12/19 14:32:45;;;;;;;15.93;6.82;;;;;;;;;;5068050;28;20028;-81
2021/12/19 14:35:10;;;;;;;10.45;5.72;;;;;;;;;;5070834;28;20526;-82
2021/12/19 14:37:40;;;;;;;11.18;6.15;;;;;;;;;;5063180;28;20028;-82
2021/12/19 14:40:08;;;;;;;14.43;9.85;;;;;;;;;;5071379;28;20490;-81
2021/12/19 14:42:37;;;;;;;41.35;22.40;;;;;;;;;;5051430;28;20460;-82
2021/12/19 14:45:06;;;;;;;29.38;15.07;;;;;;;;;;5056632;28;20025;-82
2021/12/19 14:47:38;;;;;;;23.15;12.20;;;;;;;;;;5059767;28;20032;-81
2021/12/19 14:50:14;;;;;;;18.33;10.32;;;;;;;;;;5060989;28;20040;-82
2021/12/19 14:52:54;;;;;;;16.02;9.32;;;;;;;;;;5060575;28;20098;-82
2021/12/19 14:55:23;;;;;;;19.88;10.73;;;;;;;;;;5059578;28;20472;-82
2021/12/19 14:57:49;;;;;;;16.57;9.53;;;;;;;;;;5060661;28;20456;-82
2021/12/19 15:00:14;;;;;;;16.85;11.38;;;;;;;;;;5058827;28;20281;-82
2021/12/19 15:02:40;;;;;;;12.77;7.32;;;;;;;;;;5060721;28;20128;-81
2021/12/19 15:05:06;;;;;;;13.32;8.13;;;;;;;;;;5055186;28;20044;-83
2021/12/19 15:07:32;;;;;;;16.73;9.43;;;;;;;;;;5061224;28;20048;-82
2021/12/19 15:09:58;;;;;;;18.35;10.60;;;;;;;;;;5061283;28;20501;-81
2021/12/19 15:12:23;;;;;;;12.63;7.75;;;;;;;;;;5059623;28;20107;-80
2021/12/19 15:14:49;;;;;;;12.60;8.70;;;;;;;;;;5057894;28;20503;-81
2021/12/19 15:17:14;;;;;;;16.30;10.07;;;;;;;;;;5058130;28;20156;-81
2021/12/19 15:19:39;;;;;;;14.63;8.48;;;;;;;;;;5062139;28;20025;-83
2021/12/19 15:22:05;;;;;;;13.98;8.15;;;;;;;;;;5058610;28;20040;-82
2021/12/19 15:24:30;;;;;;;14.85;8.48;;;;;;;;;;5058260;28;20548;-81
2021/12/19 15:26:56;;;;;;;18.70;12.25;;;;;;;;;;5067972;28;20429;-80
2021/12/19 15:29:21;;;;;;;12.27;7.68;;;;;;;;;;5071175;28;20036;-80
2021/12/19 15:31:50;;;;;;;10.73;7.10;;;;;;;;;;5069419;28;20025;-79
2021/12/19 15:34:15;;;;;;;14.52;9.13;;;;;;;;;;5070823;28;20066;-81
2021/12/19 15:36:42;;;;;;;15.73;8.00;;;;;;;;;;5069956;28;20594;-79
2021/12/19 15:39:08;;;;;;;8.13;5.57;;;;;;;;;;5070635;28;20024;-82
2021/12/19 15:41:35;;;;;;;16.13;8.48;;;;;;;;;;5069469;28;20020;-82
2021/12/19 15:44:00;;;;;;;12.40;8.57;;;;;;;;;;5070453;28;20035;-79
2021/12/19 15:46:26;;;;;;;13.10;7.15;;;;;;;;;;5068237;28;20577;-79
2021/12/19 15:48:51;;;;;;;11.52;7.95;;;;;;;;;;5069514;28;20020;-79
2021/12/19 15:51:17;;;;;;;15.88;10.10;;;;;;;;;;5069611;28;20472;-82
2021/12/19 15:53:43;;;;;;;6.90;5.57;;;;;;;;;;5069055;28;20094;-79
2021/12/19 15:56:08;;;;;;;5.20;3.40;;;;;;;;;;5070480;28;20117;-79
2021/12/19 15:58:34;;;;;;;6.57;4.47;;;;;;;;;;5070331;28;20028;-80
2021/12/19 16:00:59;;;;;;;4.05;2.53;;;;;;;;;;5068138;28;20073;-81
2021/12/19 16:03:25;;;;;;;5.03;2.72;;;;;;;;;;5069986;28;20151;-82
2021/12/19 16:05:52;;;;;;;8.80;5.57;;;;;;;;;;5084009;28;20365;-80
2021/12/19 16:08:19;;;;;;;9.30;6.53;;;;;;;;;;5070080;28;20028;-84
2021/12/19 16:10:44;;;;;;;8.73;5.78;;;;;;;;;;5066395;28;20028;-82
2021/12/19 16:13:10;;;;;;;6.07;4.38;;;;;;;;;;5070333;28;20146;-81
2021/12/19 16:15:35;;;;;;;9.07;4.70;;;;;;;;;;5069801;28;20024;-82
2021/12/19 16:18:01;;;;;;;5.80;4.40;;;;;;;;;;5068926;28;20024;-84
2021/12/19 16:20:26;;;;;;;4.50;2.92;;;;;;;;;;5082258;28;20056;-81
2021/12/19 16:22:53;;;;;;;3.88;2.35;;;;;;;;;;5066052;28;20067;-81
2021/12/19 16:25:19;;;;;;;5.50;3.78;;;;;;;;;;5066725;28;20060;-82
2021/12/19 16:27:44;;;;;;;5.82;3.33;;;;;;;;;;5069347;28;20192;-83
2021/12/19 16:30:17;;;;;;;4.40;2.90;;;;;;;;;;5069148;28;20033;-82
2021/12/19 16:32:43;;;;;;;6.15;4.43;;;;;;;;;;5069916;28;20443;-82